Time;durP1;ratioP1;P1;durP2;ratioP2;P2;SDS_P1;SDS_P2;PMS_P1;PMS_P2;Temp;Humidity;BMP_temperature;BMP_pressure;BME280_temperature;BME280_humidity;BME280_pressure;Samples;Min_cycle;Max_cycle;Signal;HPM_P1;HPM_P2
2022/08/19 00:02:58;;;;;;;6.88;1.73;;;;;;;;;;10472987;28;20381;-59
2022/08/19 00:07:58;;;;;;;6.22;1.80;;;;;;;;;;10467236;28;20134;-56
2022/08/19 00:12:59;;;;;;;8.38;1.77;;;;;;;;;;10462852;28;20032;-56
2022/08/19 00:18:00;;;;;;;7.57;1.92;;;;;;;;;;10447431;28;20167;-57
2022/08/19 00:23:00;;;;;;;6.32;2.00;;;;;;;;;;10471873;28;20024;-56
2022/08/19 00:28:02;;;;;;;6.10;1.70;;;;;;;;;;10462139;28;20207;-59
2022/08/19 00:33:02;;;;;;;12.48;1.77;;;;;;;;;;10449271;28;20107;-59
2022/08/19 00:38:05;;;;;;;3.03;1.40;;;;;;;;;;10460751;28;20103;-59
2022/08/19 00:43:12;;;;;;;8.32;1.67;;;;;;;;;;10448919;28;20530;-59
2022/08/19 00:48:14;;;;;;;7.53;1.77;;;;;;;;;;10464875;28;20056;-59
2022/08/19 00:53:19;;;;;;;4.38;1.40;;;;;;;;;;10449870;28;20032;-56
2022/08/19 00:58:24;;;;;;;8.32;1.90;;;;;;;;;;10431828;28;20048;-56
2022/08/19 01:03:24;;;;;;;9.85;1.70;;;;;;;;;;10450705;28;20108;-58
2022/08/19 01:08:25;;;;;;;6.97;2.20;;;;;;;;;;10455900;28;20035;-58
2022/08/19 01:13:31;;;;;;;5.93;1.95;;;;;;;;;;10462307;28;20104;-57
2022/08/19 01:18:37;;;;;;;5.43;1.77;;;;;;;;;;10445304;28;20079;-59
2022/08/19 01:23:43;;;;;;;4.57;1.50;;;;;;;;;;10441754;28;20369;-60
2022/08/19 01:28:48;;;;;;;10.00;2.17;;;;;;;;;;10452104;28;20036;-59
2022/08/19 01:33:51;;;;;;;12.85;1.85;;;;;;;;;;10467018;28;20074;-60
2022/08/19 01:38:53;;;;;;;7.30;2.03;;;;;;;;;;10468112;28;20468;-59
2022/08/19 01:43:55;;;;;;;6.38;1.90;;;;;;;;;;10455438;28;20029;-59
2022/08/19 01:48:56;;;;;;;3.95;1.52;;;;;;;;;;10436352;28;20393;-59
2022/08/19 01:53:57;;;;;;;4.10;1.90;;;;;;;;;;10453859;28;20025;-59
2022/08/19 01:59:04;;;;;;;7.03;2.20;;;;;;;;;;10455510;28;20376;-59
2022/08/19 02:04:06;;;;;;;7.13;1.83;;;;;;;;;;10461080;28;20118;-60
2022/08/19 02:09:08;;;;;;;6.82;1.80;;;;;;;;;;10476224;28;20081;-58
2022/08/19 02:14:09;;;;;;;9.52;2.10;;;;;;;;;;10476626;28;20089;-58
2022/08/19 02:19:10;;;;;;;4.80;1.50;;;;;;;;;;10452241;28;20083;-58
2022/08/19 02:24:12;;;;;;;7.07;2.00;;;;;;;;;;10441495;28;20036;-59
2022/08/19 02:29:12;;;;;;;6.80;1.90;;;;;;;;;;10453080;28;20033;-58
2022/08/19 02:34:13;;;;;;;4.65;1.45;;;;;;;;;;10467112;28;20461;-59
2022/08/19 02:39:14;;;;;;;3.47;1.48;;;;;;;;;;10462655;28;20087;-59
2022/08/19 02:44:14;;;;;;;4.07;1.45;;;;;;;;;;10476078;28;20021;-58
2022/08/19 02:49:16;;;;;;;4.80;1.58;;;;;;;;;;10457542;28;20136;-58
2022/08/19 02:54:16;;;;;;;6.00;1.52;;;;;;;;;;10447542;28;20500;-58
2022/08/19 02:59:17;;;;;;;5.07;1.55;;;;;;;;;;10449787;28;20127;-58
2022/08/19 03:04:18;;;;;;;5.15;1.80;;;;;;;;;;10477334;22;20041;-50
2022/08/19 03:09:20;;;;;;;4.95;1.58;;;;;;;;;;10464078;28;20392;-47
2022/08/19 03:14:20;;;;;;;4.80;1.63;;;;;;;;;;10491511;28;20448;-49
2022/08/19 03:19:21;;;;;;;8.65;1.50;;;;;;;;;;10485964;28;20104;-50
2022/08/19 03:24:22;;;;;;;3.38;1.38;;;;;;;;;;10443425;28;20029;-47
2022/08/19 03:29:23;;;;;;;6.13;1.60;;;;;;;;;;10450286;28;20327;-46
2022/08/19 03:34:28;;;;;;;4.28;1.70;;;;;;;;;;10451376;28;20362;-46
2022/08/19 03:39:29;;;;;;;9.15;1.80;;;;;;;;;;10447389;28;20028;-50
2022/08/19 03:44:32;;;;;;;5.53;1.58;;;;;;;;;;10426456;28;20033;-50
2022/08/19 03:49:34;;;;;;;8.15;1.40;;;;;;;;;;10453595;28;20048;-49
2022/08/19 03:54:37;;;;;;;3.70;1.48;;;;;;;;;;10449746;28;20268;-49
2022/08/19 03:59:38;;;;;;;6.75;1.73;;;;;;;;;;10428290;28;20476;-49
2022/08/19 04:04:42;;;;;;;4.13;1.80;;;;;;;;;;10448426;28;20045;-50
2022/08/19 04:09:43;;;;;;;5.80;1.63;;;;;;;;;;10485641;28;20472;-49
2022/08/19 04:14:45;;;;;;;3.22;1.30;;;;;;;;;;10437311;28;20052;-47
2022/08/19 04:19:46;;;;;;;5.55;1.55;;;;;;;;;;10472900;28;20033;-51
2022/08/19 04:24:46;;;;;;;4.30;1.60;;;;;;;;;;10475396;28;20028;-49
2022/08/19 04:29:47;;;;;;;3.92;1.00;;;;;;;;;;10475101;28;20365;-52
2022/08/19 04:34:48;;;;;;;2.70;1.30;;;;;;;;;;10437536;28;20052;-50
2022/08/19 04:45:13;;;;;;;6.25;1.45;;;;;;;;;;10447767;28;20033;-50
2022/08/19 04:50:14;;;;;;;5.25;1.30;;;;;;;;;;10455464;28;20033;-50
2022/08/19 04:55:14;;;;;;;4.03;1.40;;;;;;;;;;10457103;28;20091;-48
2022/08/19 05:00:15;;;;;;;4.03;1.48;;;;;;;;;;10469780;28;20029;-49
2022/08/19 05:05:17;;;;;;;2.75;1.17;;;;;;;;;;10461317;28;20087;-51
2022/08/19 05:10:18;;;;;;;5.93;1.10;;;;;;;;;;10458726;28;20031;-50
2022/08/19 05:15:19;;;;;;;2.38;1.20;;;;;;;;;;10456885;28;20468;-49
2022/08/19 05:25:39;;;;;;;3.08;1.40;;;;;;;;;;10458562;28;20037;-49
2022/08/19 05:30:40;;;;;;;2.85;1.15;;;;;;;;;;10454985;28;20024;-50
2022/08/19 05:35:41;;;;;;;2.35;1.20;;;;;;;;;;10461087;28;20033;-49
2022/08/19 05:40:45;;;;;;;11.38;1.23;;;;;;;;;;10460289;28;20087;-45
2022/08/19 05:45:46;;;;;;;6.47;1.42;;;;;;;;;;10454902;28;20361;-50
2022/08/19 05:50:50;;;;;;;6.13;1.50;;;;;;;;;;10457702;28;20029;-52
2022/08/19 05:55:51;;;;;;;3.75;1.10;;;;;;;;;;10450789;28;20284;-46
2022/08/19 06:00:54;;;;;;;4.82;1.70;;;;;;;;;;10455708;28;20067;-58
2022/08/19 06:05:54;;;;;;;9.80;2.45;;;;;;;;;;10445348;28;20053;-56
2022/08/19 06:10:55;;;;;;;9.07;2.47;;;;;;;;;;10441275;28;20040;-57
2022/08/19 06:15:56;;;;;;;16.90;2.88;;;;;;;;;;10450910;28;20098;-57
2022/08/19 06:20:57;;;;;;;11.75;2.60;;;;;;;;;;10460866;28;20029;-56
2022/08/19 06:25:57;;;;;;;10.13;2.58;;;;;;;;;;10433015;28;20045;-59
2022/08/19 06:30:58;;;;;;;6.43;2.03;;;;;;;;;;10455641;28;20044;-55
2022/08/19 06:36:00;;;;;;;5.93;1.88;;;;;;;;;;10463683;28;20029;-56
2022/08/19 06:41:05;;;;;;;8.55;2.42;;;;;;;;;;10454535;28;20033;-60
2022/08/19 06:46:14;;;;;;;6.22;2.03;;;;;;;;;;10465938;28;20021;-60
2022/08/19 06:51:20;;;;;;;6.32;2.03;;;;;;;;;;10445059;28;20389;-60
2022/08/19 06:56:33;;;;;;;8.95;2.25;;;;;;;;;;10428173;28;20122;-60
2022/08/19 07:01:40;;;;;;;8.25;1.70;;;;;;;;;;10446595;28;20031;-57
2022/08/19 07:06:41;;;;;;;6.40;2.38;;;;;;;;;;10409105;28;20049;-57
2022/08/19 07:11:47;;;;;;;5.22;2.10;;;;;;;;;;10444617;28;20025;-55
2022/08/19 07:16:51;;;;;;;6.93;2.00;;;;;;;;;;10447045;28;20380;-58
2022/08/19 07:21:55;;;;;;;10.13;2.10;;;;;;;;;;10435993;28;20044;-56
2022/08/19 07:27:00;;;;;;;6.30;1.92;;;;;;;;;;10448476;28;20566;-56
2022/08/19 07:32:01;;;;;;;5.15;1.77;;;;;;;;;;10449583;28;20168;-57
2022/08/19 07:37:05;;;;;;;6.38;2.08;;;;;;;;;;10450798;28;20124;-57
2022/08/19 07:42:09;;;;;;;4.75;1.60;;;;;;;;;;10453150;28;20021;-58
2022/08/19 07:47:10;;;;;;;13.25;2.70;;;;;;;;;;10436445;28;20029;-58
2022/08/19 07:52:10;;;;;;;8.65;2.22;;;;;;;;;;10434407;28;20439;-57
2022/08/19 07:57:11;;;;;;;6.47;2.17;;;;;;;;;;10452716;28;20060;-53
2022/08/19 08:02:12;;;;;;;6.05;2.08;;;;;;;;;;10438722;28;20036;-56
2022/08/19 08:12:41;;;;;;;9.43;2.25;;;;;;;;;;10439807;28;20033;-57
2022/08/19 08:17:43;;;;;;;6.43;1.88;;;;;;;;;;10431217;28;20684;-55
2022/08/19 08:28:08;;;;;;;6.18;1.90;;;;;;;;;;10428953;28;20075;-55
2022/08/19 08:33:10;;;;;;;14.43;2.63;;;;;;;;;;10437027;28;20025;-55
2022/08/19 08:38:11;;;;;;;8.57;2.08;;;;;;;;;;10434030;28;20025;-57
2022/08/19 08:43:35;;;;;;;10.65;2.28;;;;;;;;;;10437351;28;20029;-55
2022/08/19 08:48:54;;;;;;;13.32;2.10;;;;;;;;;;10422322;28;20029;-54
2022/08/19 08:53:56;;;;;;;8.13;2.20;;;;;;;;;;10444334;28;20025;-57
2022/08/19 08:59:12;;;;;;;11.32;3.08;;;;;;;;;;10448644;28;20052;-54
2022/08/19 09:04:13;;;;;;;7.43;2.60;;;;;;;;;;10422850;28;20040;-52
2022/08/19 09:09:21;;;;;;;7.47;2.25;;;;;;;;;;10447865;28;20108;-54
2022/08/19 09:15:03;;;;;;;9.43;2.22;;;;;;;;;;10425638;28;20030;-56
2022/08/19 09:20:22;;;;;;;6.20;2.00;;;;;;;;;;10448169;28;20412;-51
2022/08/19 09:25:23;;;;;;;7.40;1.77;;;;;;;;;;10454719;28;20487;-52
2022/08/19 09:30:27;;;;;;;7.07;2.03;;;;;;;;;;10438998;28;20086;-56
2022/08/19 09:35:29;;;;;;;10.32;1.60;;;;;;;;;;10433087;28;20040;-55
2022/08/19 09:40:31;;;;;;;4.68;1.50;;;;;;;;;;10438508;28;20039;-55
2022/08/19 09:45:32;;;;;;;10.82;2.03;;;;;;;;;;10434532;28;20411;-56
2022/08/19 09:50:35;;;;;;;8.07;1.83;;;;;;;;;;10444864;28;20032;-57
2022/08/19 09:55:41;;;;;;;4.88;1.50;;;;;;;;;;10440992;28;20071;-55
2022/08/19 10:00:41;;;;;;;4.50;1.38;;;;;;;;;;10443349;28;20040;-58
2022/08/19 10:05:48;;;;;;;6.50;1.80;;;;;;;;;;10435416;28;20377;-59
2022/08/19 10:10:50;;;;;;;5.28;1.50;;;;;;;;;;10437310;28;20029;-50
2022/08/19 10:15:56;;;;;;;5.47;1.70;;;;;;;;;;10437294;28;20156;-50
2022/08/19 10:21:12;;;;;;;5.95;1.55;;;;;;;;;;10416135;28;20040;-52
2022/08/19 10:26:20;;;;;;;13.00;1.70;;;;;;;;;;10424632;28;20036;-53
2022/08/19 10:31:26;;;;;;;9.15;1.88;;;;;;;;;;10445628;28;20480;-52
2022/08/19 10:36:34;;;;;;;6.65;1.58;;;;;;;;;;10445810;28;20024;-54
2022/08/19 10:41:38;;;;;;;9.02;1.98;;;;;;;;;;10438967;28;20450;-52
2022/08/19 10:46:46;;;;;;;4.90;1.73;;;;;;;;;;10439779;28;20102;-54
2022/08/19 10:57:06;;;;;;;8.63;1.85;;;;;;;;;;10452283;28;20037;-48
2022/08/19 11:02:10;;;;;;;4.50;1.50;;;;;;;;;;10432828;28;20033;-51
2022/08/19 11:07:11;;;;;;;8.50;1.20;;;;;;;;;;10452411;28;20558;-51
2022/08/19 11:12:12;;;;;;;3.38;1.30;;;;;;;;;;10441567;28;20028;-49
2022/08/19 11:17:13;;;;;;;4.55;1.17;;;;;;;;;;10454344;28;20435;-49
2022/08/19 11:22:14;;;;;;;4.38;1.38;;;;;;;;;;10447326;28;20036;-56
2022/08/19 11:27:15;;;;;;;4.93;1.40;;;;;;;;;;10457974;28;20024;-53
2022/08/19 11:32:16;;;;;;;4.10;1.55;;;;;;;;;;10468045;28;20123;-57
2022/08/19 11:37:16;;;;;;;5.95;1.30;;;;;;;;;;10450716;28;20017;-52
2022/08/19 11:47:38;;;;;;;5.97;1.83;;;;;;;;;;10467454;28;20101;-55
2022/08/19 11:52:38;;;;;;;6.88;1.33;;;;;;;;;;10462406;28;20100;-50
2022/08/19 11:57:40;;;;;;;4.45;1.45;;;;;;;;;;10467578;28;20021;-50
2022/08/19 12:02:42;;;;;;;4.00;1.70;;;;;;;;;;10457133;28;20486;-48
2022/08/19 12:07:43;;;;;;;5.63;1.45;;;;;;;;;;10451284;28;20040;-55
2022/08/19 12:12:45;;;;;;;3.60;1.40;;;;;;;;;;10462544;28;20062;-54
2022/08/19 12:17:46;;;;;;;7.40;1.65;;;;;;;;;;10444426;28;20021;-50
2022/08/19 12:22:48;;;;;;;6.60;2.10;;;;;;;;;;10454058;28;20038;-50
2022/08/19 12:27:49;;;;;;;3.83;1.60;;;;;;;;;;10459433;28;20373;-48
2022/08/19 12:32:51;;;;;;;4.60;1.85;;;;;;;;;;10449164;28;20056;-48
2022/08/19 12:37:52;;;;;;;6.80;1.65;;;;;;;;;;10449586;28;20033;-48
2022/08/19 12:42:54;;;;;;;4.97;1.70;;;;;;;;;;10433668;28;20033;-49
2022/08/19 12:47:55;;;;;;;3.38;1.42;;;;;;;;;;10438906;28;20084;-55
2022/08/19 12:52:57;;;;;;;6.40;1.30;;;;;;;;;;10442030;28;20032;-50
2022/08/19 12:57:57;;;;;;;4.03;1.42;;;;;;;;;;10446393;28;20061;-48
2022/08/19 13:02:59;;;;;;;5.55;1.63;;;;;;;;;;10437719;28;20020;-50
2022/08/19 13:08:00;;;;;;;2.65;1.05;;;;;;;;;;10441250;28;20097;-46
2022/08/19 13:13:06;;;;;;;4.30;1.42;;;;;;;;;;10446250;28;20084;-47
2022/08/19 13:18:10;;;;;;;4.18;1.33;;;;;;;;;;10453567;28;20093;-49
2022/08/19 13:23:10;;;;;;;5.03;1.38;;;;;;;;;;10447743;28;20078;-47
2022/08/19 13:28:11;;;;;;;3.75;1.17;;;;;;;;;;10461757;28;20032;-48
2022/08/19 13:33:11;;;;;;;4.38;1.45;;;;;;;;;;10460453;28;20024;-47
2022/08/19 13:38:18;;;;;;;7.25;1.27;;;;;;;;;;10448332;28;20039;-48
2022/08/19 13:43:22;;;;;;;5.95;1.10;;;;;;;;;;10450634;28;20027;-54
2022/08/19 13:48:26;;;;;;;3.10;1.00;;;;;;;;;;10444491;28;20037;-54
2022/08/19 13:53:26;;;;;;;5.63;1.05;;;;;;;;;;10447031;28;20077;-47
2022/08/19 13:58:27;;;;;;;4.70;1.40;;;;;;;;;;10453072;28;20112;-47
2022/08/19 14:03:28;;;;;;;7.10;1.35;;;;;;;;;;10453621;28;20536;-48
2022/08/19 14:08:31;;;;;;;4.10;1.50;;;;;;;;;;10451387;28;20049;-48
2022/08/19 14:13:33;;;;;;;3.60;1.30;;;;;;;;;;10423828;28;20197;-48
2022/08/19 14:18:34;;;;;;;5.05;1.30;;;;;;;;;;10446222;28;20523;-49
2022/08/19 14:23:35;;;;;;;5.15;1.42;;;;;;;;;;10449702;28;20040;-48
2022/08/19 14:28:36;;;;;;;4.47;1.30;;;;;;;;;;10427004;28;20048;-48
2022/08/19 14:33:37;;;;;;;5.25;1.45;;;;;;;;;;10447134;28;20047;-53
2022/08/19 14:38:38;;;;;;;1.67;1.10;;;;;;;;;;10440637;28;20033;-51
2022/08/19 14:43:39;;;;;;;3.63;1.20;;;;;;;;;;10446716;28;20392;-50
2022/08/19 14:48:39;;;;;;;4.07;1.30;;;;;;;;;;10442475;28;20091;-50
2022/08/19 14:53:41;;;;;;;4.15;1.35;;;;;;;;;;10447180;28;20029;-55
2022/08/19 14:58:43;;;;;;;3.65;1.30;;;;;;;;;;10432452;28;20143;-49
2022/08/19 15:03:43;;;;;;;2.30;1.10;;;;;;;;;;10449259;28;20033;-48
2022/08/19 15:08:44;;;;;;;3.13;1.08;;;;;;;;;;10457001;28;20503;-49
2022/08/19 15:13:46;;;;;;;5.93;1.10;;;;;;;;;;10450172;28;20036;-48
2022/08/19 15:18:50;;;;;;;1.35;1.05;;;;;;;;;;10452117;28;20116;-48
2022/08/19 15:23:52;;;;;;;3.90;1.05;;;;;;;;;;10449038;28;20036;-48
2022/08/19 15:28:52;;;;;;;3.13;1.00;;;;;;;;;;10448203;28;20108;-49
2022/08/19 15:33:56;;;;;;;1.00;0.93;;;;;;;;;;10435474;28;20384;-49
2022/08/19 15:38:57;;;;;;;4.50;1.33;;;;;;;;;;10438767;28;20338;-48
2022/08/19 15:44:11;;;;;;;4.47;1.25;;;;;;;;;;10449933;28;20541;-48
2022/08/19 15:49:14;;;;;;;2.42;1.20;;;;;;;;;;10447626;28;20044;-49
2022/08/19 15:54:20;;;;;;;1.65;0.93;;;;;;;;;;10450205;28;20114;-49
2022/08/19 16:09:58;;;;;;;7.35;1.88;;;;;;;;;;10436122;28;20036;-48
2022/08/19 16:14:59;;;;;;;3.97;1.10;;;;;;;;;;10434134;28;20025;-49
2022/08/19 16:20:01;;;;;;;2.22;1.05;;;;;;;;;;10441246;28;20078;-49
2022/08/19 16:25:04;;;;;;;3.33;0.98;;;;;;;;;;10457794;28;20111;-49
2022/08/19 16:30:06;;;;;;;4.70;1.20;;;;;;;;;;10452553;28;20041;-50
2022/08/19 16:35:07;;;;;;;2.42;1.00;;;;;;;;;;10442041;28;20033;-48
2022/08/19 16:40:08;;;;;;;2.65;1.25;;;;;;;;;;10439597;28;20016;-48
2022/08/19 16:45:09;;;;;;;1.77;1.10;;;;;;;;;;10456971;28;20108;-48
2022/08/19 16:50:10;;;;;;;3.40;1.25;;;;;;;;;;10465598;28;20033;-48
2022/08/19 16:55:10;;;;;;;2.67;1.35;;;;;;;;;;10444566;28;20029;-49
2022/08/19 17:00:12;;;;;;;3.72;1.00;;;;;;;;;;10441327;28;20472;-48
2022/08/19 17:05:13;;;;;;;1.73;1.23;;;;;;;;;;10446772;28;20111;-51
2022/08/19 17:10:14;;;;;;;3.25;1.00;;;;;;;;;;10458323;28;20040;-48
2022/08/19 17:15:15;;;;;;;2.05;1.05;;;;;;;;;;10456481;28;20028;-48
2022/08/19 17:20:15;;;;;;;1.55;0.75;;;;;;;;;;10455051;28;20032;-50
2022/08/19 17:25:16;;;;;;;4.50;1.23;;;;;;;;;;10445898;28;20068;-48
2022/08/19 17:30:18;;;;;;;2.92;1.00;;;;;;;;;;10442702;28;20405;-49
2022/08/19 17:35:19;;;;;;;3.08;1.17;;;;;;;;;;10441546;28;20430;-49
2022/08/19 17:40:20;;;;;;;1.65;0.98;;;;;;;;;;10443473;28;20043;-48
2022/08/19 17:45:21;;;;;;;2.95;1.27;;;;;;;;;;10444445;28;20025;-48
2022/08/19 17:50:22;;;;;;;2.35;1.20;;;;;;;;;;10441667;28;20041;-48
2022/08/19 17:55:23;;;;;;;2.95;1.10;;;;;;;;;;10451123;28;20495;-48
2022/08/19 18:00:24;;;;;;;2.35;1.20;;;;;;;;;;10443023;28;20034;-48
2022/08/19 18:05:28;;;;;;;1.58;1.10;;;;;;;;;;10447973;28;20068;-49
2022/08/19 18:10:31;;;;;;;4.68;1.42;;;;;;;;;;10462135;28;20491;-49
2022/08/19 18:15:32;;;;;;;1.85;1.20;;;;;;;;;;10452428;28;20032;-48
2022/08/19 18:20:32;;;;;;;1.50;1.00;;;;;;;;;;10453766;28;20028;-48
2022/08/19 18:25:33;;;;;;;3.95;1.10;;;;;;;;;;10451097;28;20384;-48
2022/08/19 18:30:34;;;;;;;1.30;1.02;;;;;;;;;;10451083;28;20440;-49
2022/08/19 18:35:37;;;;;;;1.20;0.82;;;;;;;;;;10441815;28;20037;-52
2022/08/19 18:51:17;;;;;;;2.67;1.23;;;;;;;;;;10433718;28;20037;-57
2022/08/19 18:56:27;;;;;;;6.90;1.77;;;;;;;;;;10455710;28;20499;-57
2022/08/19 19:01:34;;;;;;;5.32;2.05;;;;;;;;;;10450857;28;20567;-56
2022/08/19 19:06:39;;;;;;;5.53;2.20;;;;;;;;;;10460696;28;20052;-53
2022/08/19 19:11:44;;;;;;;4.25;2.20;;;;;;;;;;10461187;28;20475;-56
2022/08/19 19:16:47;;;;;;;6.25;2.20;;;;;;;;;;10456760;28;20035;-56
2022/08/19 19:21:48;;;;;;;8.73;2.35;;;;;;;;;;10422040;28;20031;-54
2022/08/19 19:26:51;;;;;;;6.88;2.40;;;;;;;;;;10431630;28;20091;-55
2022/08/19 19:31:54;;;;;;;4.95;2.20;;;;;;;;;;10425033;28;20036;-57
2022/08/19 19:36:55;;;;;;;7.55;2.35;;;;;;;;;;10440001;28;20479;-56
2022/08/19 19:41:56;;;;;;;5.22;2.63;;;;;;;;;;10432960;28;20119;-54
2022/08/19 19:46:58;;;;;;;5.07;2.40;;;;;;;;;;10455367;28;20032;-51
2022/08/19 19:51:59;;;;;;;10.90;2.70;;;;;;;;;;10451128;28;20111;-53
2022/08/19 19:56:59;;;;;;;4.13;2.35;;;;;;;;;;10442166;28;20029;-49
2022/08/19 20:02:00;;;;;;;5.88;2.75;;;;;;;;;;10438098;28;20082;-56
2022/08/19 20:07:01;;;;;;;9.98;2.22;;;;;;;;;;10441644;28;20237;-54
2022/08/19 20:12:01;;;;;;;7.88;2.60;;;;;;;;;;10472190;28;20454;-55
2022/08/19 20:17:03;;;;;;;7.43;2.50;;;;;;;;;;10448840;28;20439;-53
2022/08/19 20:22:05;;;;;;;4.85;2.40;;;;;;;;;;10442069;28;20060;-53
2022/08/19 20:27:06;;;;;;;5.18;2.20;;;;;;;;;;10452488;28;20033;-54
2022/08/19 20:32:07;;;;;;;6.18;2.10;;;;;;;;;;10451102;28;20492;-53
2022/08/19 20:37:08;;;;;;;7.85;2.17;;;;;;;;;;10448316;28;20056;-56
2022/08/19 20:42:08;;;;;;;5.40;2.33;;;;;;;;;;10429587;28;20033;-51
2022/08/19 20:47:10;;;;;;;8.43;2.33;;;;;;;;;;10448106;28;20070;-51
2022/08/19 20:52:11;;;;;;;11.18;1.90;;;;;;;;;;10440885;28;20082;-51
2022/08/19 20:57:12;;;;;;;7.60;2.05;;;;;;;;;;10445599;28;20366;-49
2022/08/19 21:02:12;;;;;;;3.20;1.58;;;;;;;;;;10457311;28;20026;-48
2022/08/19 21:07:14;;;;;;;4.93;1.95;;;;;;;;;;10451325;28;20439;-49
2022/08/19 21:12:14;;;;;;;4.18;1.70;;;;;;;;;;10452892;28;20038;-48
2022/08/19 21:17:15;;;;;;;9.07;2.10;;;;;;;;;;10447092;28;20542;-48
2022/08/19 21:22:16;;;;;;;6.53;2.38;;;;;;;;;;10446398;28;20487;-49
2022/08/19 21:27:17;;;;;;;5.60;1.70;;;;;;;;;;10454026;28;20188;-50
2022/08/19 21:32:18;;;;;;;4.47;1.77;;;;;;;;;;10456011;28;20066;-54
2022/08/19 21:37:19;;;;;;;6.05;1.63;;;;;;;;;;10474282;28;20048;-52
2022/08/19 21:42:21;;;;;;;5.32;1.55;;;;;;;;;;10476420;28;20036;-54
2022/08/19 21:47:22;;;;;;;2.40;1.33;;;;;;;;;;10448018;28;20458;-47
2022/08/19 21:52:25;;;;;;;8.75;2.08;;;;;;;;;;10454633;28;20021;-46
2022/08/19 21:57:26;;;;;;;5.20;1.67;;;;;;;;;;10442604;28;20044;-46
2022/08/19 22:02:27;;;;;;;3.70;1.20;;;;;;;;;;10466280;28;20096;-45
2022/08/19 22:07:27;;;;;;;4.82;1.52;;;;;;;;;;10460907;28;20049;-46
2022/08/19 22:12:31;;;;;;;4.63;1.65;;;;;;;;;;10436688;28;20021;-47
2022/08/19 22:17:32;;;;;;;4.75;1.77;;;;;;;;;;10456380;28;20245;-46
2022/08/19 22:22:34;;;;;;;4.43;1.50;;;;;;;;;;10453450;28;20261;-48
2022/08/19 22:27:35;;;;;;;6.50;1.60;;;;;;;;;;10438980;28;20041;-46
2022/08/19 22:32:36;;;;;;;5.85;1.77;;;;;;;;;;10442777;28;20427;-46
2022/08/19 22:37:37;;;;;;;3.95;1.45;;;;;;;;;;10451928;28;20531;-47
2022/08/19 22:42:38;;;;;;;4.88;1.60;;;;;;;;;;10443949;28;20037;-46
2022/08/19 22:47:39;;;;;;;5.38;1.80;;;;;;;;;;10450378;28;20041;-46
2022/08/19 22:52:42;;;;;;;4.30;1.65;;;;;;;;;;10469926;28;20029;-47
2022/08/19 22:57:43;;;;;;;3.13;1.50;;;;;;;;;;10480947;28;20040;-47
2022/08/19 23:02:45;;;;;;;3.63;1.45;;;;;;;;;;10454178;28;20388;-49
2022/08/19 23:07:45;;;;;;;4.65;1.40;;;;;;;;;;10457615;28;20102;-47
2022/08/19 23:12:48;;;;;;;3.88;1.33;;;;;;;;;;10461784;28;20078;-46
2022/08/19 23:17:49;;;;;;;4.82;1.80;;;;;;;;;;10473755;28;20488;-46
2022/08/19 23:22:51;;;;;;;2.75;1.20;;;;;;;;;;10477729;28;20032;-46
2022/08/19 23:33:27;;;;;;;2.58;1.35;;;;;;;;;;10450059;28;20068;-46
2022/08/19 23:38:31;;;;;;;3.92;1.48;;;;;;;;;;10446458;28;20037;-46
2022/08/19 23:43:33;;;;;;;5.18;1.63;;;;;;;;;;10443529;28;20095;-46
2022/08/19 23:48:34;;;;;;;5.93;1.58;;;;;;;;;;10449130;28;20037;-47
2022/08/19 23:53:37;;;;;;;3.55;1.45;;;;;;;;;;10449026;28;20037;-47
2022/08/19 23:58:38;;;;;;;3.55;1.30;;;;;;;;;;10436498;28;20032;-46
